createdAt,value
2022-08-08T00:00:54.518Z,99065.00
2022-08-08T00:01:08.157Z,99059.84
2022-08-08T00:02:43.421Z,99046.75
2022-08-08T00:03:50.102Z,99054.63
2022-08-08T00:04:59.998Z,99042.47
2022-08-08T00:06:09.620Z,99052.13
2022-08-08T00:07:17.910Z,99053.94
2022-08-08T00:08:28.580Z,99052.13
2022-08-08T00:09:40.830Z,99050.34
2022-08-08T00:10:51.810Z,99043.28
2022-08-08T00:12:08.009Z,99046.75
2022-08-08T00:14:15.016Z,99046.88
2022-08-08T00:14:57.135Z,99046.22
2022-08-08T00:16:09.165Z,99050.63
2022-08-08T00:17:23.239Z,99051.56
2022-08-08T00:18:33.389Z,99049.94
2022-08-08T00:19:46.678Z,99039.44
2022-08-08T00:20:58.270Z,99046.47
2022-08-08T00:22:04.948Z,99050.75
2022-08-08T00:23:18.616Z,99045.50
2022-08-08T00:24:29.977Z,99045.50
2022-08-08T00:25:46.867Z,99046.47
2022-08-08T00:26:58.138Z,99051.88
2022-08-08T00:28:02.450Z,99050.22
2022-08-08T00:29:10.948Z,99041.53
2022-08-08T00:30:15.701Z,99050.34
2022-08-08T00:32:20.975Z,99055.75
2022-08-08T00:32:52.352Z,99046.38
2022-08-08T00:34:20.778Z,99046.50
2022-08-08T00:35:34.298Z,99048.56
2022-08-08T00:36:43.029Z,99043.44
2022-08-08T00:38:31.852Z,99047.03
2022-08-08T00:41:11.653Z,99048.28
2022-08-08T00:41:55.608Z,99045.78
2022-08-08T00:43:45.949Z,99042.59
2022-08-08T00:45:21.294Z,99047.00
2022-08-08T00:47:04.524Z,99049.78
2022-08-08T00:49:03.366Z,99041.34
2022-08-08T00:50:59.962Z,99042.47
2022-08-08T00:52:48.369Z,99042.88
2022-08-08T00:54:15.533Z,99043.13
2022-08-08T00:55:53.700Z,99038.88
2022-08-08T00:57:34.397Z,99043.28
2022-08-08T00:59:43.914Z,99043.97
2022-08-08T01:00:52.873Z,99031.81
2022-08-08T01:03:59.822Z,99034.34
2022-08-08T01:04:02.673Z,99035.00
2022-08-08T01:05:59.277Z,99038.31
2022-08-08T01:07:55.268Z,99043.44
2022-08-08T01:09:42.092Z,99040.81
2022-08-08T01:11:24.368Z,99042.47
2022-08-08T01:13:06.369Z,99040.66
2022-08-08T01:14:54.254Z,99036.09
2022-08-08T01:16:19.938Z,99034.47
2022-08-08T01:18:50.580Z,99034.19
2022-08-08T01:20:03.429Z,99041.25
2022-08-08T01:22:10.326Z,99046.34
2022-08-08T01:24:13.560Z,99038.47
2022-08-08T01:25:42.972Z,99042.19
2022-08-08T01:27:44.345Z,99040.38
2022-08-08T01:29:35.595Z,99034.31
2022-08-08T01:32:13.741Z,99036.81
2022-08-08T01:34:00.553Z,99041.50
2022-08-08T01:35:49.704Z,99035.56
2022-08-08T01:37:17.441Z,99033.06
2022-08-08T01:38:59.389Z,99037.34
2022-08-08T01:40:23.814Z,99039.97
2022-08-08T01:41:43.672Z,99040.81
2022-08-08T01:42:51.929Z,99036.25
2022-08-08T01:44:02.190Z,99031.69
2022-08-08T01:45:23.551Z,99031.56
2022-08-08T01:46:52.142Z,99033.91
2022-08-08T01:48:30.778Z,99036.53
2022-08-08T01:49:47.810Z,99042.47
2022-08-08T01:51:30.584Z,99040.53
2022-08-08T01:53:28.818Z,99041.25
2022-08-08T01:55:45.332Z,99039.47
2022-08-08T01:56:28.908Z,99038.34
2022-08-08T01:57:25.789Z,99029.50
2022-08-08T01:58:59.623Z,99042.38
2022-08-08T02:00:19.620Z,99033.38
2022-08-08T02:02:00.347Z,99040.16
2022-08-08T02:03:55.476Z,99033.66
2022-08-08T02:04:58.445Z,99035.16
2022-08-08T02:06:09.018Z,99036.69
2022-08-08T02:07:42.078Z,99042.47
2022-08-08T02:08:58.358Z,99042.88
2022-08-08T02:10:29.516Z,99044.09
2022-08-08T02:11:59.342Z,99046.63
2022-08-08T02:13:54.790Z,99049.75
2022-08-08T02:14:58.794Z,99044.25
2022-08-08T02:16:28.319Z,99047.44
2022-08-08T02:17:43.250Z,99047.13
2022-08-08T02:18:58.779Z,99048.66
2022-08-08T02:20:16.301Z,99046.56
2022-08-08T02:21:56.828Z,99045.44
2022-08-08T02:23:18.395Z,99046.94
2022-08-08T02:24:26.789Z,99052.91
2022-08-08T02:25:46.856Z,99052.59
2022-08-08T02:26:58.152Z,99042.94
2022-08-08T02:28:07.158Z,99054.97
2022-08-08T02:29:31.415Z,99045.94
2022-08-08T02:30:57.914Z,99046.81
2022-08-08T02:32:15.727Z,99054.53
2022-08-08T02:34:08.701Z,99057.84
2022-08-08T02:36:04.145Z,99052.47
2022-08-08T02:37:10.153Z,99058.53
2022-08-08T02:38:56.279Z,99049.84
2022-08-08T02:40:12.060Z,99054.94
2022-08-08T02:41:58.880Z,99060.84
2022-08-08T02:44:39.101Z,99055.59
2022-08-08T02:45:24.125Z,99055.59
2022-08-08T02:46:47.043Z,99061.69
2022-08-08T02:48:27.314Z,99057.25
2022-08-08T02:50:17.850Z,99052.84
2022-08-08T02:51:56.655Z,99056.16
2022-08-08T02:53:24.110Z,99051.72
2022-08-08T02:54:42.377Z,99054.19
2022-08-08T02:56:17.565Z,99055.88
2022-08-08T02:57:51.368Z,99051.44
2022-08-08T02:59:57.744Z,99053.94
2022-08-08T03:01:47.291Z,99052.13
2022-08-08T03:05:00.228Z,99054.47
2022-08-08T03:05:25.564Z,99051.03
2022-08-08T03:07:07.229Z,99054.31
2022-08-08T03:08:52.480Z,99049.91
2022-08-08T03:10:44.407Z,99055.00
2022-08-08T03:12:36.902Z,99050.72
2022-08-08T03:15:57.768Z,99048.09
2022-08-08T03:16:05.692Z,99048.09
2022-08-08T03:17:25.552Z,99052.53
2022-08-08T03:18:52.213Z,99049.06
2022-08-08T03:20:13.729Z,99055.31
2022-08-08T03:21:19.818Z,99054.47
2022-08-08T03:22:38.909Z,99059.72
2022-08-08T03:23:57.305Z,99052.69
2022-08-08T03:25:09.215Z,99046.72
2022-08-08T03:26:42.315Z,99057.22
2022-08-08T03:27:57.037Z,99051.31
2022-08-08T03:29:16.695Z,99054.75
2022-08-08T03:30:26.549Z,99052.28
2022-08-08T03:32:06.465Z,99051.44
2022-08-08T03:33:56.789Z,99056.97
2022-08-08T03:34:48.513Z,99054.50
2022-08-08T03:35:52.793Z,99047.44
2022-08-08T03:36:58.801Z,99049.94
2022-08-08T03:38:56.911Z,99048.94
2022-08-08T03:39:29.732Z,99049.78
2022-08-08T03:40:34.351Z,99056.72
2022-08-08T03:42:26.598Z,99048.00
2022-08-08T03:43:16.876Z,99048.94
2022-08-08T03:44:32.828Z,99051.72
2022-08-08T03:46:06.289Z,99053.38
2022-08-08T03:47:14.297Z,99052.56
2022-08-08T03:49:09.547Z,99053.53
2022-08-08T03:49:57.432Z,99055.19
2022-08-08T03:51:09.186Z,99051.72
2022-08-08T03:52:18.398Z,99055.19
2022-08-08T03:53:42.721Z,99055.03
2022-08-08T03:55:01.966Z,99055.88
2022-08-08T03:56:31.337Z,99061.97
2022-08-08T03:58:30.485Z,99064.44
2022-08-08T03:59:02.669Z,99066.06
2022-08-08T04:00:11.439Z,99071.19
2022-08-08T04:01:26.198Z,99069.25
2022-08-08T04:02:56.998Z,99064.69
2022-08-08T04:04:02.104Z,99070.63
2022-08-08T04:05:19.352Z,99067.84
2022-08-08T04:06:29.579Z,99074.59
2022-08-08T04:07:39.315Z,99076.94
2022-08-08T04:08:46.091Z,99071.53
2022-08-08T04:10:02.955Z,99074.88
2022-08-08T04:11:17.377Z,99076.53
2022-08-08T04:12:23.268Z,99076.38
2022-08-08T04:13:28.309Z,99079.69
2022-08-08T04:14:38.122Z,99075.13
2022-08-08T04:16:03.408Z,99079.53
2022-08-08T04:17:15.444Z,99078.56
2022-08-08T04:18:27.200Z,99080.22
2022-08-08T04:19:30.439Z,99082.84
2022-08-08T04:20:41.187Z,99084.50
2022-08-08T04:21:45.898Z,99087.00
2022-08-08T04:22:51.389Z,99082.41
2022-08-08T04:24:05.679Z,99085.78
2022-08-08T04:25:18.082Z,99084.63
2022-08-08T04:26:21.597Z,99087.94
2022-08-08T04:28:01.949Z,99090.28
2022-08-08T04:28:54.745Z,99083.06
2022-08-08T04:30:17.300Z,99085.41
2022-08-08T04:31:59.437Z,99079.88
2022-08-08T04:32:50.337Z,99083.84
2022-08-08T04:33:57.287Z,99085.06
2022-08-08T04:35:01.532Z,99080.19
2022-08-08T04:36:09.849Z,99084.19
2022-08-08T04:37:15.077Z,99092.31
2022-08-08T04:38:21.638Z,99093.38
2022-08-08T04:40:04.621Z,99095.56
2022-08-08T04:40:55.074Z,99097.75
2022-08-08T04:42:00.411Z,99085.94
2022-08-08T04:43:05.879Z,99096.84
2022-08-08T04:44:17.800Z,99092.81
2022-08-08T04:45:24.125Z,99084.44
2022-08-08T04:46:31.329Z,99086.63
2022-08-08T04:47:43.248Z,99084.53
2022-08-08T04:48:52.809Z,99087.53
2022-08-08T04:50:01.304Z,99084.44
2022-08-08T04:51:17.463Z,99085.00
2022-08-08T04:52:33.934Z,99084.50
2022-08-08T04:54:36.023Z,99082.41
2022-08-08T04:55:07.607Z,99089.69
2022-08-08T04:56:13.197Z,99094.53
2022-08-08T04:57:18.047Z,99094.72
2022-08-08T04:58:22.421Z,99092.19
2022-08-08T04:59:29.988Z,99093.91
2022-08-08T05:00:34.988Z,99097.25
2022-08-08T05:01:48.651Z,99095.47
2022-08-08T05:02:55.540Z,99097.34
2022-08-08T05:04:08.098Z,99093.09
2022-08-08T05:05:20.387Z,99096.44
2022-08-08T05:06:45.553Z,99100.13
2022-08-08T05:07:49.141Z,99097.50
2022-08-08T05:08:55.750Z,99102.00
2022-08-08T05:10:01.740Z,99095.94
2022-08-08T05:11:23.881Z,99099.72
2022-08-08T05:12:36.744Z,99107.19
2022-08-08T05:13:54.979Z,99096.00
2022-08-08T05:15:05.208Z,99105.25
2022-08-08T05:16:50.826Z,99099.50
2022-08-08T05:17:37.318Z,99103.31
2022-08-08T05:18:56.739Z,99112.91
2022-08-08T05:20:12.464Z,99114.41
2022-08-08T05:21:19.302Z,99114.09
2022-08-08T05:22:25.120Z,99108.69
2022-08-08T05:23:30.646Z,99111.97
2022-08-08T05:24:48.939Z,99121.56
2022-08-08T05:26:00.339Z,99115.44
2022-08-08T05:27:06.347Z,99113.00
2022-08-08T05:28:13.007Z,99109.88
2022-08-08T05:29:19.296Z,99114.50
2022-08-08T05:30:27.913Z,99121.78
2022-08-08T05:32:03.392Z,99116.00
2022-08-08T05:32:58.368Z,99122.56
2022-08-08T05:34:10.207Z,99113.50
2022-08-08T05:35:16.864Z,99115.13
2022-08-08T05:36:24.982Z,99112.00
2022-08-08T05:37:49.090Z,99112.66
2022-08-08T05:38:59.081Z,99112.31
2022-08-08T05:40:05.618Z,99118.75
2022-08-08T05:41:11.770Z,99113.47
2022-08-08T05:42:19.287Z,99117.72
2022-08-08T05:44:02.301Z,99114.22
2022-08-08T05:44:52.948Z,99116.88
2022-08-08T05:46:03.197Z,99112.53
2022-08-08T05:47:14.141Z,99116.50
2022-08-08T05:48:28.909Z,99112.84
2022-08-08T05:49:37.977Z,99107.38
2022-08-08T05:50:42.544Z,99115.16
2022-08-08T05:51:51.002Z,99100.25
2022-08-08T05:53:54.220Z,99106.06
2022-08-08T05:54:42.977Z,99112.84
2022-08-08T05:56:11.354Z,99108.03
2022-08-08T05:57:57.438Z,99117.00
2022-08-08T05:58:56.779Z,99113.75
2022-08-08T06:00:25.054Z,99104.94
2022-08-08T06:01:55.534Z,99112.03
2022-08-08T06:03:13.077Z,99106.59
2022-08-08T06:04:27.605Z,99113.69
2022-08-08T06:05:36.657Z,99119.00
2022-08-08T06:06:48.130Z,99125.31
2022-08-08T06:08:02.733Z,99125.88
2022-08-08T06:09:59.177Z,99106.94
2022-08-08T06:10:42.709Z,99119.53
2022-08-08T06:11:49.346Z,99123.94
2022-08-08T06:12:52.432Z,99122.03
2022-08-08T06:13:58.149Z,99129.88
2022-08-08T06:15:06.093Z,99129.94
2022-08-08T06:16:14.042Z,99127.38
2022-08-08T06:17:51.113Z,99130.81
2022-08-08T06:19:03.882Z,99132.72
2022-08-08T06:20:13.609Z,99133.44
2022-08-08T06:21:32.275Z,99129.53
2022-08-08T06:22:46.115Z,99131.66
2022-08-08T06:24:03.455Z,99131.72
2022-08-08T06:25:14.074Z,99128.81
2022-08-08T06:26:43.012Z,99121.38
2022-08-08T06:27:48.879Z,99128.63
2022-08-08T06:28:58.351Z,99120.09
2022-08-08T06:30:11.789Z,99131.81
2022-08-08T06:31:32.253Z,99128.38
2022-08-08T06:32:52.946Z,99128.66
2022-08-08T06:34:27.519Z,99121.28
2022-08-08T06:36:08.091Z,99133.41
2022-08-08T06:36:57.469Z,99126.22
2022-08-08T06:38:09.207Z,99131.34
2022-08-08T06:39:22.360Z,99119.22
2022-08-08T06:40:30.105Z,99124.56
2022-08-08T06:41:43.526Z,99131.16
2022-08-08T06:42:57.087Z,99127.25
2022-08-08T06:44:12.305Z,99126.84
2022-08-08T06:45:34.146Z,99131.13
2022-08-08T06:46:38.714Z,99136.69
2022-08-08T06:47:52.593Z,99134.84
2022-08-08T06:49:06.260Z,99132.16
2022-08-08T06:50:17.409Z,99136.69
2022-08-08T06:51:23.324Z,99139.34
2022-08-08T06:52:29.107Z,99133.38
2022-08-08T06:53:39.705Z,99126.63
2022-08-08T06:54:58.790Z,99131.91
2022-08-08T06:56:04.441Z,99129.78
2022-08-08T06:57:12.487Z,99135.78
2022-08-08T06:58:19.195Z,99130.16
2022-08-08T06:59:27.131Z,99127.88
2022-08-08T07:00:40.965Z,99124.16
2022-08-08T07:02:16.922Z,99132.16
2022-08-08T07:03:19.425Z,99131.75
2022-08-08T07:04:36.371Z,99132.75
2022-08-08T07:06:02.191Z,99124.09
2022-08-08T07:07:12.557Z,99131.31
2022-08-08T07:08:27.699Z,99125.16
2022-08-08T07:09:45.113Z,99132.53
2022-08-08T07:11:01.531Z,99131.91
2022-08-08T07:12:08.883Z,99137.44
2022-08-08T07:13:17.606Z,99133.66
2022-08-08T07:14:38.695Z,99135.25
2022-08-08T07:16:06.276Z,99133.53
2022-08-08T07:17:19.833Z,99133.06
2022-08-08T07:18:36.278Z,99133.28
2022-08-08T07:19:45.756Z,99132.81
2022-08-08T07:20:55.898Z,99136.06
2022-08-08T07:22:18.777Z,99138.16
2022-08-08T07:24:02.071Z,99143.28
2022-08-08T07:25:01.954Z,99137.34
2022-08-08T07:26:06.486Z,99136.34
2022-08-08T07:27:16.734Z,99130.00
2022-08-08T07:28:31.688Z,99129.88
2022-08-08T07:30:02.397Z,99118.44
2022-08-08T07:31:10.183Z,99132.13
2022-08-08T07:32:15.920Z,99130.34
2022-08-08T07:33:24.987Z,99128.47
2022-08-08T07:35:00.185Z,99125.69
2022-08-08T07:36:10.889Z,99134.06
2022-08-08T07:37:23.330Z,99133.78
2022-08-08T07:38:28.636Z,99130.41
2022-08-08T07:39:45.287Z,99125.78
2022-08-08T07:40:51.637Z,99125.13
2022-08-08T07:42:03.964Z,99122.59
2022-08-08T07:43:13.554Z,99129.72
2022-08-08T07:44:37.772Z,99122.81
2022-08-08T07:46:05.865Z,99129.94
2022-08-08T07:47:13.416Z,99130.47
2022-08-08T07:48:20.858Z,99122.88
2022-08-08T07:49:28.804Z,99134.41
2022-08-08T07:50:32.922Z,99135.38
2022-08-08T07:51:45.409Z,99133.31
2022-08-08T07:53:02.177Z,99129.63
2022-08-08T07:54:24.026Z,99136.72
2022-08-08T07:55:36.404Z,99136.72
2022-08-08T07:56:50.794Z,99139.66
2022-08-08T07:58:05.471Z,99134.91
2022-08-08T07:59:14.794Z,99135.53
2022-08-08T08:00:23.967Z,99138.19
2022-08-08T08:02:33.285Z,99149.41
2022-08-08T08:03:23.459Z,99144.88
2022-08-08T08:04:40.046Z,99147.13
2022-08-08T08:05:50.648Z,99138.94
2022-08-08T08:07:00.965Z,99149.06
2022-08-08T08:08:06.778Z,99144.50
2022-08-08T08:09:19.669Z,99154.81
2022-08-08T08:10:33.186Z,99144.97
2022-08-08T08:11:51.560Z,99149.53
2022-08-08T08:13:25.679Z,99155.78
2022-08-08T08:14:56.270Z,99151.75
2022-08-08T08:16:03.441Z,99152.00
2022-08-08T08:17:13.926Z,99150.72
2022-08-08T08:18:31.721Z,99151.50
2022-08-08T08:19:45.648Z,99149.88
2022-08-08T08:20:53.906Z,99157.31
2022-08-08T08:22:07.795Z,99149.19
2022-08-08T08:23:16.285Z,99157.94
2022-08-08T08:24:30.429Z,99158.19
2022-08-08T08:25:42.731Z,99159.94
2022-08-08T08:26:54.648Z,99159.94
2022-08-08T08:28:02.971Z,99156.59
2022-08-08T08:29:07.207Z,99146.41
2022-08-08T08:30:21.232Z,99147.59
2022-08-08T08:31:41.534Z,99155.97
2022-08-08T08:32:51.562Z,99153.38
2022-08-08T08:33:58.941Z,99161.75
2022-08-08T08:35:03.517Z,99158.50
2022-08-08T08:36:19.271Z,99159.88
2022-08-08T08:37:30.466Z,99161.38
2022-08-08T08:38:36.099Z,99165.19
2022-08-08T08:40:02.063Z,99162.28
2022-08-08T08:41:17.820Z,99157.16
2022-08-08T08:42:31.270Z,99157.16
2022-08-08T08:43:42.634Z,99164.16
2022-08-08T08:44:52.499Z,99164.50
2022-08-08T08:45:57.337Z,99158.31
2022-08-08T08:47:06.589Z,99163.75
2022-08-08T08:48:19.007Z,99167.34
2022-08-08T08:49:29.558Z,99164.03
2022-08-08T08:50:40.857Z,99161.53
2022-08-08T08:51:51.568Z,99158.38
2022-08-08T08:52:59.946Z,99153.13
2022-08-08T08:54:10.098Z,99162.72
2022-08-08T08:55:16.070Z,99147.31
2022-08-08T08:56:24.084Z,99161.09
2022-08-08T08:57:34.620Z,99154.78
2022-08-08T08:58:43.051Z,99157.00
2022-08-08T08:59:58.770Z,99168.09
2022-08-08T09:01:09.637Z,99163.88
2022-08-08T09:02:21.801Z,99166.81
2022-08-08T09:03:31.504Z,99163.56
2022-08-08T09:04:50.718Z,99165.56
2022-08-08T09:05:57.506Z,99168.66
2022-08-08T09:07:12.920Z,99169.31
2022-08-08T09:08:22.130Z,99161.88
2022-08-08T09:09:39.489Z,99165.84
2022-08-08T09:10:57.313Z,99176.03
2022-08-08T09:12:08.046Z,99170.19
2022-08-08T09:13:15.641Z,99165.53
2022-08-08T09:14:23.246Z,99169.31
2022-08-08T09:15:40.905Z,99164.25
2022-08-08T09:16:47.769Z,99164.38
2022-08-08T09:17:55.854Z,99170.31
2022-08-08T09:19:05.508Z,99158.53
2022-08-08T09:21:58.982Z,99155.72
2022-08-08T09:22:05.465Z,99161.31
2022-08-08T09:23:03.217Z,99157.88
2022-08-08T09:24:08.154Z,99162.06
2022-08-08T09:25:19.029Z,99155.88
2022-08-08T09:26:39.581Z,99159.84
2022-08-08T09:28:05.310Z,99156.09
2022-08-08T09:29:28.216Z,99167.53
2022-08-08T09:30:55.681Z,99165.31
2022-08-08T09:32:19.421Z,99162.22
2022-08-08T09:34:14.876Z,99157.88
2022-08-08T09:35:37.369Z,99155.41
2022-08-08T09:37:34.141Z,99153.44
2022-08-08T09:38:54.686Z,99156.31
2022-08-08T09:40:21.307Z,99156.41
2022-08-08T09:42:14.749Z,99156.72
2022-08-08T09:43:40.608Z,99161.38
2022-08-08T09:45:15.692Z,99156.59
2022-08-08T09:46:45.116Z,99158.78
2022-08-08T09:48:26.060Z,99155.00
2022-08-08T09:49:51.742Z,99152.00
2022-08-08T09:51:17.483Z,99153.81
2022-08-08T09:53:00.370Z,99155.38
2022-08-08T09:54:37.125Z,99153.16
2022-08-08T09:56:06.476Z,99150.47
2022-08-08T09:57:37.907Z,99153.31
2022-08-08T09:59:42.786Z,99155.06
2022-08-08T10:00:59.127Z,99155.06
2022-08-08T10:02:25.096Z,99152.38
2022-08-08T10:03:56.259Z,99152.59
2022-08-08T10:05:23.136Z,99153.53
2022-08-08T10:06:45.364Z,99149.69
2022-08-08T10:08:12.628Z,99146.84
2022-08-08T10:10:00.091Z,99149.22
2022-08-08T10:12:23.007Z,99155.31
2022-08-08T10:13:14.231Z,99148.97
2022-08-08T10:14:38.670Z,99140.28
2022-08-08T10:16:00.748Z,99154.03
2022-08-08T10:17:56.834Z,99154.19
2022-08-08T10:19:05.759Z,99138.72
2022-08-08T10:20:44.567Z,99147.31
2022-08-08T10:22:10.348Z,99156.91
2022-08-08T10:23:46.059Z,99145.19
2022-08-08T10:25:20.557Z,99144.84
2022-08-08T10:26:59.493Z,99144.28
2022-08-08T10:28:25.722Z,99146.66
2022-08-08T10:29:58.668Z,99145.66
2022-08-08T10:31:47.335Z,99140.25
2022-08-08T10:33:12.242Z,99137.03
2022-08-08T10:34:29.232Z,99136.50
2022-08-08T10:36:08.539Z,99128.34
2022-08-08T10:37:39.636Z,99129.31
2022-08-08T10:39:07.908Z,99134.31
2022-08-08T10:40:24.070Z,99137.94
2022-08-08T10:42:13.018Z,99135.03
2022-08-08T10:43:40.317Z,99143.72
2022-08-08T10:45:02.980Z,99134.63
2022-08-08T10:46:32.557Z,99142.53
2022-08-08T10:47:56.946Z,99138.94
2022-08-08T10:49:26.949Z,99137.88
2022-08-08T10:51:13.383Z,99137.19
2022-08-08T10:52:34.194Z,99133.56
2022-08-08T10:54:02.118Z,99126.78
2022-08-08T10:55:39.658Z,99135.75
2022-08-08T10:56:58.575Z,99134.59
2022-08-08T10:58:30.107Z,99135.88
2022-08-08T10:59:54.046Z,99139.38
2022-08-08T11:01:20.537Z,99133.69
2022-08-08T11:02:42.806Z,99136.13
2022-08-08T11:04:10.527Z,99137.41
2022-08-08T11:05:38.304Z,99134.84
2022-08-08T11:07:02.666Z,99138.34
2022-08-08T11:08:37.936Z,99135.19
2022-08-08T11:10:10.358Z,99138.59
2022-08-08T11:12:05.287Z,99136.25
2022-08-08T11:13:31.753Z,99132.13
2022-08-08T11:14:52.960Z,99127.69
2022-08-08T11:16:33.178Z,99130.66
2022-08-08T11:18:01.117Z,99128.88
2022-08-08T11:19:24.407Z,99132.78
2022-08-08T11:20:52.432Z,99134.41
2022-08-08T11:22:09.767Z,99132.38
2022-08-08T11:23:35.204Z,99137.16
2022-08-08T11:24:52.595Z,99136.22
2022-08-08T11:26:19.385Z,99133.28
2022-08-08T11:27:38.664Z,99125.88
2022-08-08T11:29:07.666Z,99130.06
2022-08-08T11:30:31.800Z,99125.88
2022-08-08T11:31:50.433Z,99120.78
2022-08-08T11:33:12.888Z,99128.94
2022-08-08T11:34:41.867Z,99125.56
2022-08-08T11:36:14.415Z,99121.63
2022-08-08T11:38:36.329Z,99120.03
2022-08-08T11:39:19.997Z,99123.25
2022-08-08T11:40:42.957Z,99108.03
2022-08-08T11:41:52.685Z,99116.91
2022-08-08T11:43:13.167Z,99112.81
2022-08-08T11:44:33.638Z,99119.03
2022-08-08T11:46:10.028Z,99108.50
2022-08-08T11:47:39.714Z,99109.38
2022-08-08T11:49:14.224Z,99115.66
2022-08-08T11:50:33.705Z,99111.47
2022-08-08T11:51:50.395Z,99115.88
2022-08-08T11:53:12.583Z,99108.59
2022-08-08T11:54:34.410Z,99112.91
2022-08-08T11:55:53.416Z,99117.72
2022-08-08T11:57:16.946Z,99117.56
2022-08-08T11:58:35.661Z,99105.03
2022-08-08T12:00:02.024Z,99108.38
2022-08-08T12:01:35.469Z,99104.75
2022-08-08T12:02:54.985Z,99103.91
2022-08-08T12:04:12.626Z,99100.84
2022-08-08T12:05:36.204Z,99104.50
2022-08-08T12:07:05.113Z,99110.47
2022-08-08T12:08:39.297Z,99095.88
2022-08-08T12:09:59.684Z,99103.16
2022-08-08T12:11:27.061Z,99110.19
2022-08-08T12:12:51.905Z,99113.97
2022-08-08T12:14:12.629Z,99110.22
2022-08-08T12:15:41.872Z,99106.41
2022-08-08T12:17:03.453Z,99101.81
2022-08-08T12:18:24.510Z,99103.72
2022-08-08T12:19:51.165Z,99100.22
2022-08-08T12:21:25.774Z,99098.25
2022-08-08T12:23:02.756Z,99104.00
2022-08-08T12:24:28.206Z,99103.78
2022-08-08T12:25:52.772Z,99095.91
2022-08-08T12:27:19.116Z,99108.38
2022-08-08T12:28:39.791Z,99105.91
2022-08-08T12:29:57.777Z,99106.38
2022-08-08T12:31:06.484Z,99116.00
2022-08-08T12:32:13.328Z,99109.03
2022-08-08T12:33:24.065Z,99109.47
2022-08-08T12:34:44.906Z,99114.22
2022-08-08T12:35:52.681Z,99101.94
2022-08-08T12:37:05.564Z,99101.75
2022-08-08T12:38:18.031Z,99099.13
2022-08-08T12:39:56.484Z,99100.81
2022-08-08T12:41:10.540Z,99104.75
2022-08-08T12:42:33.587Z,99107.88
2022-08-08T12:43:43.793Z,99098.97
2022-08-08T12:45:53.755Z,99096.44
2022-08-08T12:46:30.412Z,99089.09
2022-08-08T12:47:58.814Z,99091.97
2022-08-08T12:50:25.913Z,99090.69
2022-08-08T12:51:41.196Z,99077.50
2022-08-08T12:52:54.676Z,99081.16
2022-08-08T12:54:01.965Z,99082.91
2022-08-08T12:55:29.113Z,99073.09
2022-08-08T12:56:40.025Z,99073.44
2022-08-08T12:58:15.460Z,99075.97
2022-08-08T12:59:36.191Z,99082.66
2022-08-08T13:00:51.638Z,99080.53
2022-08-08T13:01:57.726Z,99087.84
2022-08-08T13:03:04.947Z,99088.91
2022-08-08T13:04:18.614Z,99090.63
2022-08-08T13:06:05.656Z,99088.88
2022-08-08T13:07:16.652Z,99084.41
2022-08-08T13:08:22.258Z,99091.69
2022-08-08T13:09:57.805Z,99085.84
2022-08-08T13:11:04.572Z,99090.41
2022-08-08T13:12:24.806Z,99083.47
2022-08-08T13:13:37.604Z,99084.22
2022-08-08T13:14:52.827Z,99078.50
2022-08-08T13:16:18.509Z,99079.97
2022-08-08T13:18:09.367Z,99077.69
2022-08-08T13:18:56.898Z,99068.00
2022-08-08T13:20:08.601Z,99073.50
2022-08-08T13:21:14.177Z,99077.19
2022-08-08T13:22:24.509Z,99076.28
2022-08-08T13:23:36.064Z,99078.19
2022-08-08T13:24:48.964Z,99075.81
2022-08-08T13:25:59.363Z,99067.31
2022-08-08T13:27:11.864Z,99066.31
2022-08-08T13:28:17.477Z,99071.25
2022-08-08T13:29:22.093Z,99062.94
2022-08-08T13:30:28.098Z,99072.00
2022-08-08T13:31:32.816Z,99062.81
2022-08-08T13:32:39.592Z,99062.13
2022-08-08T13:33:50.164Z,99066.09
2022-08-08T13:34:56.097Z,99066.38
2022-08-08T13:35:59.344Z,99057.41
2022-08-08T13:37:03.906Z,99062.72
2022-08-08T13:38:15.549Z,99056.47
2022-08-08T13:39:21.433Z,99062.72
2022-08-08T13:40:27.338Z,99064.44
2022-08-08T13:41:39.277Z,99064.06
2022-08-08T13:42:49.074Z,99058.03
2022-08-08T13:43:54.030Z,99058.41
2022-08-08T13:45:04.562Z,99061.25
2022-08-08T13:46:28.414Z,99068.81
2022-08-08T13:47:34.576Z,99064.75
2022-08-08T13:48:48.235Z,99062.06
2022-08-08T13:50:34.872Z,99062.56
2022-08-08T13:51:37.959Z,99068.72
2022-08-08T13:52:48.623Z,99066.75
2022-08-08T13:54:00.045Z,99061.03
2022-08-08T13:55:08.211Z,99060.75
2022-08-08T13:56:12.387Z,99053.72
2022-08-08T13:57:18.067Z,99066.41
2022-08-08T13:58:56.270Z,99060.84
2022-08-08T14:00:09.398Z,99066.13
2022-08-08T14:01:23.359Z,99063.94
2022-08-08T14:02:44.785Z,99064.44
2022-08-08T14:03:55.101Z,99061.75
2022-08-08T14:05:09.130Z,99063.38
2022-08-08T14:06:33.206Z,99064.66
2022-08-08T14:07:42.242Z,99068.81
2022-08-08T14:08:46.824Z,99064.81
2022-08-08T14:10:05.345Z,99066.81
2022-08-08T14:11:20.987Z,99072.56
2022-08-08T14:12:27.921Z,99071.19
2022-08-08T14:13:33.991Z,99067.66
2022-08-08T14:14:40.159Z,99070.06
2022-08-08T14:15:50.101Z,99066.56
2022-08-08T14:16:55.429Z,99062.44
2022-08-08T14:18:34.539Z,99062.56
2022-08-08T14:19:56.973Z,99066.53
2022-08-08T14:21:04.075Z,99064.09
2022-08-08T14:22:18.396Z,99064.94
2022-08-08T14:24:08.134Z,99069.59
2022-08-08T14:24:52.470Z,99067.69
2022-08-08T14:26:00.673Z,99054.91
2022-08-08T14:27:27.285Z,99067.00
2022-08-08T14:28:32.025Z,99053.59
2022-08-08T14:29:54.777Z,99054.81
2022-08-08T14:31:09.705Z,99064.19
2022-08-08T14:32:30.010Z,99055.25
2022-08-08T14:33:36.452Z,99063.31
2022-08-08T14:34:42.056Z,99061.81
2022-08-08T14:35:49.572Z,99053.56
2022-08-08T14:36:56.706Z,99056.66
2022-08-08T14:38:08.739Z,99063.88
2022-08-08T14:39:19.324Z,99071.13
2022-08-08T14:40:24.812Z,99062.53
2022-08-08T14:41:53.095Z,99054.66
2022-08-08T14:42:57.042Z,99055.63
2022-08-08T14:44:11.177Z,99054.09
2022-08-08T14:45:18.327Z,99045.94
2022-08-08T14:46:37.321Z,99054.09
2022-08-08T14:47:51.446Z,99060.25
2022-08-08T14:48:59.066Z,99050.53
2022-08-08T14:50:16.243Z,99054.97
2022-08-08T14:51:30.945Z,99051.25
2022-08-08T14:52:57.604Z,99054.84
2022-08-08T14:54:03.477Z,99061.34
2022-08-08T14:55:10.116Z,99055.81
2022-08-08T14:56:15.447Z,99052.69
2022-08-08T14:57:20.661Z,99063.13
2022-08-08T14:58:43.940Z,99053.91
2022-08-08T14:59:50.942Z,99052.88
2022-08-08T15:00:58.325Z,99046.50
2022-08-08T15:02:01.602Z,99050.13
2022-08-08T15:03:15.999Z,99057.78
2022-08-08T15:04:21.213Z,99056.22
2022-08-08T15:05:34.169Z,99057.09
2022-08-08T15:06:47.667Z,99055.81
2022-08-08T15:08:00.794Z,99056.34
2022-08-08T15:09:06.195Z,99056.41
2022-08-08T15:10:12.706Z,99059.97
2022-08-08T15:11:19.070Z,99061.38
2022-08-08T15:12:27.583Z,99057.38
2022-08-08T15:13:39.886Z,99060.09
2022-08-08T15:14:44.614Z,99064.19
2022-08-08T15:16:02.854Z,99063.91
2022-08-08T15:17:08.378Z,99063.06
2022-08-08T15:18:14.336Z,99060.00
2022-08-08T15:19:23.733Z,99052.88
2022-08-08T15:20:31.997Z,99057.25
2022-08-08T15:21:42.438Z,99062.34
2022-08-08T15:22:47.035Z,99067.38
2022-08-08T15:23:51.099Z,99063.78
2022-08-08T15:24:56.054Z,99064.00
2022-08-08T15:26:00.698Z,99066.88
2022-08-08T15:27:20.171Z,99068.28
2022-08-08T15:28:34.348Z,99071.06
2022-08-08T15:29:38.158Z,99064.38
2022-08-08T15:30:42.525Z,99068.25
2022-08-08T15:32:02.759Z,99068.41